sensor_id;sensor_type;location;lat;lon;timestamp;P1;durP1;ratioP1;P2;durP2;ratioP2
59271;SDS011;45043;51.068;7.026;2024-03-08T00:02:29;23.77;;;19.93;;
59271;SDS011;45043;51.068;7.026;2024-03-08T00:05:30;21.20;;;18.00;;
59271;SDS011;45043;51.068;7.026;2024-03-08T00:08:31;22.87;;;19.47;;
59271;SDS011;45043;51.068;7.026;2024-03-08T00:11:36;21.90;;;18.53;;
59271;SDS011;45043;51.068;7.026;2024-03-08T00:14:37;22.30;;;19.33;;
59271;SDS011;45043;51.068;7.026;2024-03-08T00:17:38;24.63;;;19.40;;
59271;SDS011;45043;51.068;7.026;2024-03-08T00:20:39;21.57;;;18.53;;
59271;SDS011;45043;51.068;7.026;2024-03-08T00:23:39;26.57;;;19.57;;
59271;SDS011;45043;51.068;7.026;2024-03-08T00:26:40;21.03;;;16.90;;
59271;SDS011;45043;51.068;7.026;2024-03-08T00:29:42;25.27;;;19.90;;
59271;SDS011;45043;51.068;7.026;2024-03-08T00:32:43;24.90;;;19.90;;
59271;SDS011;45043;51.068;7.026;2024-03-08T00:35:43;26.60;;;19.63;;
59271;SDS011;45043;51.068;7.026;2024-03-08T00:38:44;24.00;;;19.77;;
59271;SDS011;45043;51.068;7.026;2024-03-08T00:41:45;23.57;;;19.33;;
59271;SDS011;45043;51.068;7.026;2024-03-08T00:44:46;23.03;;;18.70;;
59271;SDS011;45043;51.068;7.026;2024-03-08T00:47:48;25.10;;;18.83;;
59271;SDS011;45043;51.068;7.026;2024-03-08T00:50:49;25.30;;;20.23;;
59271;SDS011;45043;51.068;7.026;2024-03-08T00:53:49;26.27;;;21.53;;
59271;SDS011;45043;51.068;7.026;2024-03-08T00:56:50;23.07;;;19.37;;
59271;SDS011;45043;51.068;7.026;2024-03-08T00:59:51;24.40;;;20.43;;
59271;SDS011;45043;51.068;7.026;2024-03-08T01:02:53;26.00;;;19.40;;
59271;SDS011;45043;51.068;7.026;2024-03-08T01:05:53;26.00;;;19.63;;
59271;SDS011;45043;51.068;7.026;2024-03-08T01:08:54;23.53;;;19.57;;
59271;SDS011;45043;51.068;7.026;2024-03-08T01:11:55;24.93;;;19.73;;
59271;SDS011;45043;51.068;7.026;2024-03-08T01:14:56;25.30;;;21.03;;
59271;SDS011;45043;51.068;7.026;2024-03-08T01:17:59;25.90;;;19.67;;
59271;SDS011;45043;51.068;7.026;2024-03-08T01:21:01;23.50;;;19.97;;
59271;SDS011;45043;51.068;7.026;2024-03-08T01:24:02;24.43;;;18.60;;
59271;SDS011;45043;51.068;7.026;2024-03-08T01:27:03;25.33;;;19.67;;
59271;SDS011;45043;51.068;7.026;2024-03-08T01:30:04;25.37;;;20.77;;
59271;SDS011;45043;51.068;7.026;2024-03-08T01:33:06;24.40;;;19.73;;
59271;SDS011;45043;51.068;7.026;2024-03-08T01:36:07;25.87;;;19.07;;
59271;SDS011;45043;51.068;7.026;2024-03-08T01:39:07;25.27;;;19.73;;
59271;SDS011;45043;51.068;7.026;2024-03-08T01:42:09;24.60;;;19.80;;
59271;SDS011;45043;51.068;7.026;2024-03-08T01:45:12;26.37;;;20.40;;
59271;SDS011;45043;51.068;7.026;2024-03-08T01:48:16;25.47;;;21.47;;
59271;SDS011;45043;51.068;7.026;2024-03-08T01:51:18;25.20;;;19.93;;
59271;SDS011;45043;51.068;7.026;2024-03-08T01:54:19;27.47;;;22.17;;
59271;SDS011;45043;51.068;7.026;2024-03-08T01:57:20;25.43;;;19.43;;
59271;SDS011;45043;51.068;7.026;2024-03-08T02:00:22;24.63;;;19.13;;
59271;SDS011;45043;51.068;7.026;2024-03-08T02:03:25;25.10;;;20.33;;
59271;SDS011;45043;51.068;7.026;2024-03-08T02:06:26;25.53;;;20.57;;
59271;SDS011;45043;51.068;7.026;2024-03-08T02:09:26;25.70;;;21.40;;
59271;SDS011;45043;51.068;7.026;2024-03-08T02:12:28;24.87;;;20.00;;
59271;SDS011;45043;51.068;7.026;2024-03-08T02:18:55;23.90;;;20.07;;
59271;SDS011;45043;51.068;7.026;2024-03-08T02:21:56;28.13;;;21.47;;
59271;SDS011;45043;51.068;7.026;2024-03-08T02:24:59;28.30;;;20.87;;
59271;SDS011;45043;51.068;7.026;2024-03-08T02:28:09;29.07;;;20.70;;
59271;SDS011;45043;51.068;7.026;2024-03-08T02:31:11;24.23;;;19.67;;
59271;SDS011;45043;51.068;7.026;2024-03-08T02:34:12;25.27;;;20.43;;
59271;SDS011;45043;51.068;7.026;2024-03-08T02:37:14;27.23;;;20.27;;
59271;SDS011;45043;51.068;7.026;2024-03-08T02:40:15;28.13;;;20.67;;
59271;SDS011;45043;51.068;7.026;2024-03-08T02:43:17;26.10;;;21.10;;
59271;SDS011;45043;51.068;7.026;2024-03-08T02:46:19;28.80;;;21.07;;
59271;SDS011;45043;51.068;7.026;2024-03-08T02:49:21;24.57;;;19.07;;
59271;SDS011;45043;51.068;7.026;2024-03-08T02:52:23;25.60;;;20.13;;
59271;SDS011;45043;51.068;7.026;2024-03-08T02:55:24;24.60;;;20.30;;
59271;SDS011;45043;51.068;7.026;2024-03-08T02:58:26;24.63;;;19.63;;
59271;SDS011;45043;51.068;7.026;2024-03-08T03:01:27;28.27;;;21.07;;
59271;SDS011;45043;51.068;7.026;2024-03-08T03:04:28;28.57;;;21.20;;
59271;SDS011;45043;51.068;7.026;2024-03-08T03:07:29;27.33;;;20.53;;
59271;SDS011;45043;51.068;7.026;2024-03-08T03:10:30;27.13;;;20.27;;
59271;SDS011;45043;51.068;7.026;2024-03-08T03:13:31;28.00;;;20.77;;
59271;SDS011;45043;51.068;7.026;2024-03-08T03:16:32;25.47;;;19.77;;
59271;SDS011;45043;51.068;7.026;2024-03-08T03:19:33;23.83;;;19.43;;
59271;SDS011;45043;51.068;7.026;2024-03-08T03:22:39;24.77;;;20.13;;
59271;SDS011;45043;51.068;7.026;2024-03-08T03:25:41;25.50;;;20.90;;
59271;SDS011;45043;51.068;7.026;2024-03-08T03:28:42;27.30;;;21.17;;
59271;SDS011;45043;51.068;7.026;2024-03-08T03:31:43;26.23;;;20.07;;
59271;SDS011;45043;51.068;7.026;2024-03-08T03:34:47;26.10;;;20.00;;
59271;SDS011;45043;51.068;7.026;2024-03-08T03:37:47;27.97;;;19.87;;
59271;SDS011;45043;51.068;7.026;2024-03-08T03:41:07;26.00;;;19.50;;
59271;SDS011;45043;51.068;7.026;2024-03-08T03:44:10;28.33;;;20.90;;
59271;SDS011;45043;51.068;7.026;2024-03-08T03:47:11;27.40;;;20.73;;
59271;SDS011;45043;51.068;7.026;2024-03-08T03:50:12;25.23;;;20.20;;
59271;SDS011;45043;51.068;7.026;2024-03-08T03:53:13;25.87;;;20.30;;
59271;SDS011;45043;51.068;7.026;2024-03-08T03:56:14;26.13;;;20.27;;
59271;SDS011;45043;51.068;7.026;2024-03-08T03:59:15;26.93;;;20.83;;
59271;SDS011;45043;51.068;7.026;2024-03-08T04:02:16;27.27;;;20.83;;
59271;SDS011;45043;51.068;7.026;2024-03-08T04:05:20;26.87;;;20.70;;
59271;SDS011;45043;51.068;7.026;2024-03-08T04:08:21;26.90;;;20.70;;
59271;SDS011;45043;51.068;7.026;2024-03-08T04:11:24;24.90;;;19.83;;
59271;SDS011;45043;51.068;7.026;2024-03-08T04:14:24;24.93;;;19.93;;
59271;SDS011;45043;51.068;7.026;2024-03-08T04:17:25;25.47;;;20.43;;
59271;SDS011;45043;51.068;7.026;2024-03-08T04:20:26;27.00;;;19.77;;
59271;SDS011;45043;51.068;7.026;2024-03-08T04:23:27;28.67;;;21.63;;
59271;SDS011;45043;51.068;7.026;2024-03-08T04:26:29;28.20;;;21.47;;
59271;SDS011;45043;51.068;7.026;2024-03-08T04:29:30;28.70;;;21.03;;
59271;SDS011;45043;51.068;7.026;2024-03-08T04:32:30;26.37;;;20.37;;
59271;SDS011;45043;51.068;7.026;2024-03-08T04:35:32;27.10;;;19.57;;
59271;SDS011;45043;51.068;7.026;2024-03-08T04:38:33;27.87;;;21.03;;
59271;SDS011;45043;51.068;7.026;2024-03-08T04:41:34;28.13;;;21.17;;
59271;SDS011;45043;51.068;7.026;2024-03-08T04:44:38;29.40;;;21.83;;
59271;SDS011;45043;51.068;7.026;2024-03-08T04:47:39;28.77;;;20.50;;
59271;SDS011;45043;51.068;7.026;2024-03-08T04:50:40;26.93;;;21.80;;
59271;SDS011;45043;51.068;7.026;2024-03-08T04:53:42;27.50;;;21.37;;
59271;SDS011;45043;51.068;7.026;2024-03-08T04:56:42;28.67;;;21.37;;
59271;SDS011;45043;51.068;7.026;2024-03-08T04:59:43;26.33;;;19.77;;
59271;SDS011;45043;51.068;7.026;2024-03-08T05:02:44;27.43;;;21.20;;
59271;SDS011;45043;51.068;7.026;2024-03-08T05:05:45;26.17;;;20.27;;
59271;SDS011;45043;51.068;7.026;2024-03-08T05:08:45;27.90;;;21.37;;
59271;SDS011;45043;51.068;7.026;2024-03-08T05:11:48;27.00;;;20.87;;
59271;SDS011;45043;51.068;7.026;2024-03-08T05:14:48;29.67;;;21.90;;
59271;SDS011;45043;51.068;7.026;2024-03-08T05:17:50;26.90;;;20.93;;
59271;SDS011;45043;51.068;7.026;2024-03-08T05:20:50;27.63;;;21.17;;
59271;SDS011;45043;51.068;7.026;2024-03-08T05:23:52;26.50;;;19.00;;
59271;SDS011;45043;51.068;7.026;2024-03-08T05:26:52;25.43;;;19.23;;
59271;SDS011;45043;51.068;7.026;2024-03-08T05:29:53;25.57;;;20.00;;
59271;SDS011;45043;51.068;7.026;2024-03-08T05:32:53;23.03;;;18.27;;
59271;SDS011;45043;51.068;7.026;2024-03-08T05:35:54;26.27;;;19.77;;
59271;SDS011;45043;51.068;7.026;2024-03-08T05:38:55;26.70;;;20.00;;
59271;SDS011;45043;51.068;7.026;2024-03-08T05:41:56;25.57;;;20.13;;
59271;SDS011;45043;51.068;7.026;2024-03-08T05:44:57;25.10;;;19.30;;
59271;SDS011;45043;51.068;7.026;2024-03-08T05:47:59;27.23;;;19.50;;
59271;SDS011;45043;51.068;7.026;2024-03-08T05:51:00;24.90;;;18.37;;
59271;SDS011;45043;51.068;7.026;2024-03-08T05:54:02;24.03;;;17.90;;
59271;SDS011;45043;51.068;7.026;2024-03-08T05:57:05;24.60;;;18.93;;
59271;SDS011;45043;51.068;7.026;2024-03-08T06:00:07;23.53;;;18.73;;
59271;SDS011;45043;51.068;7.026;2024-03-08T06:03:12;28.70;;;18.83;;
59271;SDS011;45043;51.068;7.026;2024-03-08T06:06:14;25.50;;;18.87;;
59271;SDS011;45043;51.068;7.026;2024-03-08T06:09:15;24.03;;;19.40;;
59271;SDS011;45043;51.068;7.026;2024-03-08T06:12:23;23.70;;;19.80;;
59271;SDS011;45043;51.068;7.026;2024-03-08T06:15:29;23.60;;;18.97;;
59271;SDS011;45043;51.068;7.026;2024-03-08T06:18:31;24.47;;;18.60;;
59271;SDS011;45043;51.068;7.026;2024-03-08T06:21:32;24.23;;;18.67;;
59271;SDS011;45043;51.068;7.026;2024-03-08T06:24:32;23.87;;;18.70;;
59271;SDS011;45043;51.068;7.026;2024-03-08T06:27:35;25.57;;;19.27;;
59271;SDS011;45043;51.068;7.026;2024-03-08T06:30:36;23.87;;;18.67;;
59271;SDS011;45043;51.068;7.026;2024-03-08T06:33:36;26.10;;;20.73;;
59271;SDS011;45043;51.068;7.026;2024-03-08T06:36:38;29.00;;;20.43;;
59271;SDS011;45043;51.068;7.026;2024-03-08T06:39:38;26.43;;;19.63;;
59271;SDS011;45043;51.068;7.026;2024-03-08T06:42:39;24.63;;;19.57;;
59271;SDS011;45043;51.068;7.026;2024-03-08T06:45:42;23.20;;;19.13;;
59271;SDS011;45043;51.068;7.026;2024-03-08T06:48:48;24.87;;;18.57;;
59271;SDS011;45043;51.068;7.026;2024-03-08T06:51:52;23.83;;;18.17;;
59271;SDS011;45043;51.068;7.026;2024-03-08T06:54:53;26.23;;;19.27;;
59271;SDS011;45043;51.068;7.026;2024-03-08T06:57:53;25.43;;;19.37;;
59271;SDS011;45043;51.068;7.026;2024-03-08T07:00:54;22.17;;;17.87;;
59271;SDS011;45043;51.068;7.026;2024-03-08T07:03:59;23.60;;;19.30;;
59271;SDS011;45043;51.068;7.026;2024-03-08T07:07:03;24.97;;;19.53;;
59271;SDS011;45043;51.068;7.026;2024-03-08T07:10:09;22.23;;;18.17;;
59271;SDS011;45043;51.068;7.026;2024-03-08T07:13:15;25.87;;;19.17;;
59271;SDS011;45043;51.068;7.026;2024-03-08T07:16:17;21.83;;;18.27;;
59271;SDS011;45043;51.068;7.026;2024-03-08T07:19:18;22.23;;;18.30;;
59271;SDS011;45043;51.068;7.026;2024-03-08T07:22:19;22.73;;;19.33;;
59271;SDS011;45043;51.068;7.026;2024-03-08T07:25:20;23.23;;;19.03;;
59271;SDS011;45043;51.068;7.026;2024-03-08T07:28:25;23.50;;;18.27;;
59271;SDS011;45043;51.068;7.026;2024-03-08T07:31:26;26.10;;;18.07;;
59271;SDS011;45043;51.068;7.026;2024-03-08T07:34:26;23.17;;;18.43;;
59271;SDS011;45043;51.068;7.026;2024-03-08T07:37:28;21.80;;;18.00;;
59271;SDS011;45043;51.068;7.026;2024-03-08T07:40:28;25.37;;;19.77;;
59271;SDS011;45043;51.068;7.026;2024-03-08T07:43:29;24.20;;;17.27;;
59271;SDS011;45043;51.068;7.026;2024-03-08T07:46:30;19.67;;;16.50;;
59271;SDS011;45043;51.068;7.026;2024-03-08T07:49:31;22.53;;;18.47;;
59271;SDS011;45043;51.068;7.026;2024-03-08T07:52:31;22.43;;;18.17;;
59271;SDS011;45043;51.068;7.026;2024-03-08T07:55:33;23.73;;;18.50;;
59271;SDS011;45043;51.068;7.026;2024-03-08T07:58:35;21.60;;;18.03;;
59271;SDS011;45043;51.068;7.026;2024-03-08T08:01:36;23.17;;;18.53;;
59271;SDS011;45043;51.068;7.026;2024-03-08T08:04:37;20.67;;;16.47;;
59271;SDS011;45043;51.068;7.026;2024-03-08T08:07:39;21.93;;;17.90;;
59271;SDS011;45043;51.068;7.026;2024-03-08T08:10:43;21.87;;;17.17;;
59271;SDS011;45043;51.068;7.026;2024-03-08T08:13:44;23.07;;;17.33;;
59271;SDS011;45043;51.068;7.026;2024-03-08T08:16:44;20.00;;;15.63;;
59271;SDS011;45043;51.068;7.026;2024-03-08T08:19:46;20.13;;;16.80;;
59271;SDS011;45043;51.068;7.026;2024-03-08T08:22:46;22.50;;;17.17;;
59271;SDS011;45043;51.068;7.026;2024-03-08T08:25:48;19.97;;;17.47;;
59271;SDS011;45043;51.068;7.026;2024-03-08T08:28:50;19.37;;;16.73;;
59271;SDS011;45043;51.068;7.026;2024-03-08T08:31:51;21.50;;;16.77;;
59271;SDS011;45043;51.068;7.026;2024-03-08T08:34:51;24.23;;;20.17;;
59271;SDS011;45043;51.068;7.026;2024-03-08T08:37:52;21.13;;;17.23;;
59271;SDS011;45043;51.068;7.026;2024-03-08T08:40:53;22.37;;;17.77;;
59271;SDS011;45043;51.068;7.026;2024-03-08T08:43:53;20.37;;;16.67;;
59271;SDS011;45043;51.068;7.026;2024-03-08T08:46:55;22.42;;;20.02;;
59271;SDS011;45043;51.068;7.026;2024-03-08T08:49:56;25.03;;;18.67;;
59271;SDS011;45043;51.068;7.026;2024-03-08T08:52:57;24.80;;;19.57;;
59271;SDS011;45043;51.068;7.026;2024-03-08T08:55:59;23.07;;;18.17;;
59271;SDS011;45043;51.068;7.026;2024-03-08T08:59:02;21.00;;;17.57;;
59271;SDS011;45043;51.068;7.026;2024-03-08T09:02:06;22.67;;;18.13;;
59271;SDS011;45043;51.068;7.026;2024-03-08T09:05:07;21.60;;;17.70;;
59271;SDS011;45043;51.068;7.026;2024-03-08T09:08:08;21.03;;;17.40;;
59271;SDS011;45043;51.068;7.026;2024-03-08T09:11:09;21.80;;;17.03;;
59271;SDS011;45043;51.068;7.026;2024-03-08T09:14:10;22.90;;;17.97;;
59271;SDS011;45043;51.068;7.026;2024-03-08T09:17:12;21.27;;;17.23;;
59271;SDS011;45043;51.068;7.026;2024-03-08T09:20:14;20.97;;;17.13;;
59271;SDS011;45043;51.068;7.026;2024-03-08T09:23:15;20.47;;;16.23;;
59271;SDS011;45043;51.068;7.026;2024-03-08T09:26:17;20.00;;;16.77;;
59271;SDS011;45043;51.068;7.026;2024-03-08T09:29:18;21.23;;;17.30;;
59271;SDS011;45043;51.068;7.026;2024-03-08T09:32:19;23.40;;;16.90;;
59271;SDS011;45043;51.068;7.026;2024-03-08T09:35:20;20.40;;;16.57;;
59271;SDS011;45043;51.068;7.026;2024-03-08T09:38:20;17.67;;;14.17;;
59271;SDS011;45043;51.068;7.026;2024-03-08T09:41:21;22.00;;;16.43;;
59271;SDS011;45043;51.068;7.026;2024-03-08T09:44:23;20.93;;;15.40;;
59271;SDS011;45043;51.068;7.026;2024-03-08T09:47:25;18.87;;;14.57;;
59271;SDS011;45043;51.068;7.026;2024-03-08T09:50:34;19.30;;;14.80;;
59271;SDS011;45043;51.068;7.026;2024-03-08T09:53:39;18.93;;;15.40;;
59271;SDS011;45043;51.068;7.026;2024-03-08T09:56:40;17.43;;;14.00;;
59271;SDS011;45043;51.068;7.026;2024-03-08T09:59:45;18.20;;;13.93;;
59271;SDS011;45043;51.068;7.026;2024-03-08T10:02:49;16.30;;;14.60;;
59271;SDS011;45043;51.068;7.026;2024-03-08T10:05:54;21.23;;;14.67;;
59271;SDS011;45043;51.068;7.026;2024-03-08T10:09:00;16.43;;;14.03;;
59271;SDS011;45043;51.068;7.026;2024-03-08T10:12:01;16.17;;;14.07;;
59271;SDS011;45043;51.068;7.026;2024-03-08T10:15:03;16.70;;;13.83;;
59271;SDS011;45043;51.068;7.026;2024-03-08T10:18:08;16.27;;;13.77;;
59271;SDS011;45043;51.068;7.026;2024-03-08T10:21:09;16.53;;;12.87;;
59271;SDS011;45043;51.068;7.026;2024-03-08T10:24:15;15.17;;;12.87;;
59271;SDS011;45043;51.068;7.026;2024-03-08T10:27:18;14.60;;;12.90;;
59271;SDS011;45043;51.068;7.026;2024-03-08T10:30:18;15.13;;;12.50;;
59271;SDS011;45043;51.068;7.026;2024-03-08T10:33:22;16.37;;;13.20;;
59271;SDS011;45043;51.068;7.026;2024-03-08T10:36:23;16.73;;;13.27;;
59271;SDS011;45043;51.068;7.026;2024-03-08T10:39:25;15.83;;;13.00;;
59271;SDS011;45043;51.068;7.026;2024-03-08T10:42:27;15.70;;;12.07;;
59271;SDS011;45043;51.068;7.026;2024-03-08T10:45:36;16.30;;;12.20;;
59271;SDS011;45043;51.068;7.026;2024-03-08T10:48:40;15.40;;;12.73;;
59271;SDS011;45043;51.068;7.026;2024-03-08T10:51:49;14.40;;;11.77;;
59271;SDS011;45043;51.068;7.026;2024-03-08T10:54:52;13.33;;;11.60;;
59271;SDS011;45043;51.068;7.026;2024-03-08T10:57:55;14.17;;;11.30;;
59271;SDS011;45043;51.068;7.026;2024-03-08T11:00:55;16.53;;;11.90;;
59271;SDS011;45043;51.068;7.026;2024-03-08T11:03:57;14.33;;;12.17;;
59271;SDS011;45043;51.068;7.026;2024-03-08T11:07:02;14.40;;;12.03;;
59271;SDS011;45043;51.068;7.026;2024-03-08T11:10:19;15.83;;;11.57;;
59271;SDS011;45043;51.068;7.026;2024-03-08T11:16:46;15.00;;;10.97;;
59271;SDS011;45043;51.068;7.026;2024-03-08T11:19:47;15.97;;;11.43;;
59271;SDS011;45043;51.068;7.026;2024-03-08T11:22:50;12.93;;;11.53;;
59271;SDS011;45043;51.068;7.026;2024-03-08T11:25:55;13.67;;;11.77;;
59271;SDS011;45043;51.068;7.026;2024-03-08T11:29:31;13.77;;;11.13;;
59271;SDS011;45043;51.068;7.026;2024-03-08T11:32:29;14.90;;;11.33;;
59271;SDS011;45043;51.068;7.026;2024-03-08T11:35:30;16.73;;;11.13;;
59271;SDS011;45043;51.068;7.026;2024-03-08T11:38:32;12.13;;;10.30;;
59271;SDS011;45043;51.068;7.026;2024-03-08T11:41:34;13.53;;;10.77;;
59271;SDS011;45043;51.068;7.026;2024-03-08T11:44:35;13.53;;;10.67;;
59271;SDS011;45043;51.068;7.026;2024-03-08T11:47:36;14.57;;;11.27;;
59271;SDS011;45043;51.068;7.026;2024-03-08T11:50:40;12.73;;;10.40;;
59271;SDS011;45043;51.068;7.026;2024-03-08T11:53:40;11.97;;;10.40;;
59271;SDS011;45043;51.068;7.026;2024-03-08T11:56:42;15.10;;;10.73;;
59271;SDS011;45043;51.068;7.026;2024-03-08T11:59:49;11.77;;;10.40;;
59271;SDS011;45043;51.068;7.026;2024-03-08T12:03:03;12.27;;;10.77;;
59271;SDS011;45043;51.068;7.026;2024-03-08T12:06:10;15.13;;;11.03;;
59271;SDS011;45043;51.068;7.026;2024-03-08T12:09:13;13.87;;;9.77;;
59271;SDS011;45043;51.068;7.026;2024-03-08T12:12:15;13.50;;;10.03;;
59271;SDS011;45043;51.068;7.026;2024-03-08T12:15:16;13.00;;;10.53;;
59271;SDS011;45043;51.068;7.026;2024-03-08T12:18:18;11.80;;;10.27;;
59271;SDS011;45043;51.068;7.026;2024-03-08T12:21:19;13.70;;;10.37;;
59271;SDS011;45043;51.068;7.026;2024-03-08T12:24:24;12.37;;;9.90;;
59271;SDS011;45043;51.068;7.026;2024-03-08T12:27:26;13.60;;;10.90;;
59271;SDS011;45043;51.068;7.026;2024-03-08T12:30:30;11.57;;;9.60;;
59271;SDS011;45043;51.068;7.026;2024-03-08T12:33:33;14.37;;;10.13;;
59271;SDS011;45043;51.068;7.026;2024-03-08T12:36:35;10.80;;;9.53;;
59271;SDS011;45043;51.068;7.026;2024-03-08T12:39:40;12.23;;;9.40;;
59271;SDS011;45043;51.068;7.026;2024-03-08T12:42:42;11.47;;;10.20;;
59271;SDS011;45043;51.068;7.026;2024-03-08T12:45:46;11.33;;;9.53;;
59271;SDS011;45043;51.068;7.026;2024-03-08T12:48:47;11.67;;;10.17;;
59271;SDS011;45043;51.068;7.026;2024-03-08T12:51:49;11.83;;;8.90;;
59271;SDS011;45043;51.068;7.026;2024-03-08T12:54:49;11.60;;;9.73;;
59271;SDS011;45043;51.068;7.026;2024-03-08T12:57:50;11.27;;;9.40;;
59271;SDS011;45043;51.068;7.026;2024-03-08T13:00:54;12.33;;;10.70;;
59271;SDS011;45043;51.068;7.026;2024-03-08T13:03:55;11.50;;;9.13;;
59271;SDS011;45043;51.068;7.026;2024-03-08T13:06:56;11.07;;;9.80;;
59271;SDS011;45043;51.068;7.026;2024-03-08T13:09:57;12.23;;;9.93;;
59271;SDS011;45043;51.068;7.026;2024-03-08T13:13:00;11.93;;;9.80;;
59271;SDS011;45043;51.068;7.026;2024-03-08T13:16:02;10.77;;;9.40;;
59271;SDS011;45043;51.068;7.026;2024-03-08T13:19:03;12.07;;;10.70;;
59271;SDS011;45043;51.068;7.026;2024-03-08T13:22:05;13.10;;;11.70;;
59271;SDS011;45043;51.068;7.026;2024-03-08T13:25:06;13.43;;;11.20;;
59271;SDS011;45043;51.068;7.026;2024-03-08T13:28:13;12.23;;;10.33;;
59271;SDS011;45043;51.068;7.026;2024-03-08T13:31:15;13.90;;;11.63;;
59271;SDS011;45043;51.068;7.026;2024-03-08T13:34:16;12.20;;;10.90;;
59271;SDS011;45043;51.068;7.026;2024-03-08T13:37:17;12.13;;;9.90;;
59271;SDS011;45043;51.068;7.026;2024-03-08T13:40:20;13.33;;;11.50;;
59271;SDS011;45043;51.068;7.026;2024-03-08T13:43:21;15.47;;;12.13;;
59271;SDS011;45043;51.068;7.026;2024-03-08T13:46:22;12.27;;;10.27;;
59271;SDS011;45043;51.068;7.026;2024-03-08T13:49:25;12.17;;;10.30;;
59271;SDS011;45043;51.068;7.026;2024-03-08T13:52:26;13.47;;;10.47;;
59271;SDS011;45043;51.068;7.026;2024-03-08T13:55:30;15.23;;;10.83;;
59271;SDS011;45043;51.068;7.026;2024-03-08T13:58:31;14.10;;;10.80;;
59271;SDS011;45043;51.068;7.026;2024-03-08T14:01:31;11.13;;;9.43;;
59271;SDS011;45043;51.068;7.026;2024-03-08T14:04:32;12.20;;;10.23;;
59271;SDS011;45043;51.068;7.026;2024-03-08T14:07:35;13.00;;;10.90;;
59271;SDS011;45043;51.068;7.026;2024-03-08T14:10:36;12.27;;;10.87;;
59271;SDS011;45043;51.068;7.026;2024-03-08T14:13:41;12.70;;;10.97;;
59271;SDS011;45043;51.068;7.026;2024-03-08T14:16:45;13.70;;;11.33;;
59271;SDS011;45043;51.068;7.026;2024-03-08T14:19:46;13.07;;;11.23;;
59271;SDS011;45043;51.068;7.026;2024-03-08T14:22:46;12.67;;;11.33;;
59271;SDS011;45043;51.068;7.026;2024-03-08T14:25:49;14.53;;;11.50;;
59271;SDS011;45043;51.068;7.026;2024-03-08T14:28:52;14.80;;;11.53;;
59271;SDS011;45043;51.068;7.026;2024-03-08T14:31:55;13.00;;;11.70;;
59271;SDS011;45043;51.068;7.026;2024-03-08T14:34:59;12.93;;;11.47;;
59271;SDS011;45043;51.068;7.026;2024-03-08T14:38:00;13.17;;;11.53;;
59271;SDS011;45043;51.068;7.026;2024-03-08T14:41:01;13.20;;;11.70;;
59271;SDS011;45043;51.068;7.026;2024-03-08T14:44:04;13.67;;;11.67;;
59271;SDS011;45043;51.068;7.026;2024-03-08T14:47:05;13.90;;;12.27;;
59271;SDS011;45043;51.068;7.026;2024-03-08T14:50:07;13.17;;;11.40;;
59271;SDS011;45043;51.068;7.026;2024-03-08T14:53:09;14.00;;;11.73;;
59271;SDS011;45043;51.068;7.026;2024-03-08T14:56:10;14.13;;;11.07;;
59271;SDS011;45043;51.068;7.026;2024-03-08T14:59:16;13.20;;;11.40;;
59271;SDS011;45043;51.068;7.026;2024-03-08T15:02:19;14.10;;;12.60;;
59271;SDS011;45043;51.068;7.026;2024-03-08T15:05:22;13.60;;;11.80;;
59271;SDS011;45043;51.068;7.026;2024-03-08T15:08:27;12.93;;;11.27;;
59271;SDS011;45043;51.068;7.026;2024-03-08T15:11:29;12.20;;;11.00;;
59271;SDS011;45043;51.068;7.026;2024-03-08T15:14:30;13.17;;;11.13;;
59271;SDS011;45043;51.068;7.026;2024-03-08T15:17:33;13.13;;;11.27;;
59271;SDS011;45043;51.068;7.026;2024-03-08T15:20:36;13.40;;;11.93;;
59271;SDS011;45043;51.068;7.026;2024-03-08T15:23:36;13.63;;;12.20;;
59271;SDS011;45043;51.068;7.026;2024-03-08T15:26:37;13.07;;;11.23;;
59271;SDS011;45043;51.068;7.026;2024-03-08T15:29:37;14.53;;;12.73;;
59271;SDS011;45043;51.068;7.026;2024-03-08T15:32:39;13.57;;;12.03;;
59271;SDS011;45043;51.068;7.026;2024-03-08T15:35:44;26.93;;;24.10;;
59271;SDS011;45043;51.068;7.026;2024-03-08T15:38:50;19.60;;;17.30;;
59271;SDS011;45043;51.068;7.026;2024-03-08T15:41:51;24.47;;;21.87;;
59271;SDS011;45043;51.068;7.026;2024-03-08T15:44:51;15.90;;;14.17;;
59271;SDS011;45043;51.068;7.026;2024-03-08T15:47:52;15.00;;;12.40;;
59271;SDS011;45043;51.068;7.026;2024-03-08T15:50:54;16.43;;;14.73;;
59271;SDS011;45043;51.068;7.026;2024-03-08T15:53:54;16.47;;;14.77;;
59271;SDS011;45043;51.068;7.026;2024-03-08T15:56:56;17.20;;;15.40;;
59271;SDS011;45043;51.068;7.026;2024-03-08T15:59:58;16.90;;;15.10;;
59271;SDS011;45043;51.068;7.026;2024-03-08T16:03:04;14.17;;;12.87;;
59271;SDS011;45043;51.068;7.026;2024-03-08T16:06:07;13.90;;;12.37;;
59271;SDS011;45043;51.068;7.026;2024-03-08T16:09:08;13.50;;;12.20;;
59271;SDS011;45043;51.068;7.026;2024-03-08T16:12:15;13.00;;;11.77;;
59271;SDS011;45043;51.068;7.026;2024-03-08T16:15:16;13.20;;;11.90;;
59271;SDS011;45043;51.068;7.026;2024-03-08T16:18:18;13.00;;;11.80;;
59271;SDS011;45043;51.068;7.026;2024-03-08T16:21:22;12.33;;;11.13;;
59271;SDS011;45043;51.068;7.026;2024-03-08T16:24:23;12.00;;;10.70;;
59271;SDS011;45043;51.068;7.026;2024-03-08T16:27:24;12.23;;;11.03;;
59271;SDS011;45043;51.068;7.026;2024-03-08T16:30:24;11.40;;;10.27;;
59271;SDS011;45043;51.068;7.026;2024-03-08T16:33:27;12.23;;;11.00;;
59271;SDS011;45043;51.068;7.026;2024-03-08T16:36:27;11.63;;;10.43;;
59271;SDS011;45043;51.068;7.026;2024-03-08T16:39:28;11.43;;;10.23;;
59271;SDS011;45043;51.068;7.026;2024-03-08T16:42:30;11.57;;;9.90;;
59271;SDS011;45043;51.068;7.026;2024-03-08T16:45:31;11.20;;;9.67;;
59271;SDS011;45043;51.068;7.026;2024-03-08T16:48:31;10.60;;;9.50;;
59271;SDS011;45043;51.068;7.026;2024-03-08T16:51:35;12.30;;;9.57;;
59271;SDS011;45043;51.068;7.026;2024-03-08T16:54:36;11.73;;;9.57;;
59271;SDS011;45043;51.068;7.026;2024-03-08T16:57:38;10.80;;;9.60;;
59271;SDS011;45043;51.068;7.026;2024-03-08T17:00:38;10.63;;;9.53;;
59271;SDS011;45043;51.068;7.026;2024-03-08T17:03:39;11.70;;;10.13;;
59271;SDS011;45043;51.068;7.026;2024-03-08T17:06:40;12.43;;;10.17;;
59271;SDS011;45043;51.068;7.026;2024-03-08T17:09:42;10.90;;;9.80;;
59271;SDS011;45043;51.068;7.026;2024-03-08T17:12:42;13.80;;;9.50;;
59271;SDS011;45043;51.068;7.026;2024-03-08T17:15:44;11.43;;;9.73;;
59271;SDS011;45043;51.068;7.026;2024-03-08T17:18:48;11.60;;;9.17;;
59271;SDS011;45043;51.068;7.026;2024-03-08T17:21:49;14.33;;;10.30;;
59271;SDS011;45043;51.068;7.026;2024-03-08T17:24:49;11.47;;;9.40;;
59271;SDS011;45043;51.068;7.026;2024-03-08T17:27:52;12.53;;;10.80;;
59271;SDS011;45043;51.068;7.026;2024-03-08T17:30:55;13.63;;;10.90;;
59271;SDS011;45043;51.068;7.026;2024-03-08T17:33:55;12.20;;;9.63;;
59271;SDS011;45043;51.068;7.026;2024-03-08T17:36:56;13.07;;;10.73;;
59271;SDS011;45043;51.068;7.026;2024-03-08T17:39:58;13.07;;;10.07;;
59271;SDS011;45043;51.068;7.026;2024-03-08T17:42:59;14.43;;;11.00;;
59271;SDS011;45043;51.068;7.026;2024-03-08T17:46:00;13.10;;;11.17;;
59271;SDS011;45043;51.068;7.026;2024-03-08T17:49:04;14.17;;;11.40;;
59271;SDS011;45043;51.068;7.026;2024-03-08T17:52:06;15.03;;;11.07;;
59271;SDS011;45043;51.068;7.026;2024-03-08T17:55:09;18.37;;;11.93;;